YSB233 ZSPD-RJBB
Flight info
| Callsign | YSB233 |
|---|---|
| Flight time | N/A |
| Altitude | 39000 |
| Route | LAM82D LAMEN A593 SADLI Y590 BEDAR Y591 FUE Y35 IGLEV |
| Aircraft | A21N/M-SDE2E3FGHIRWXY/LB1 |
Departure
| Time | 2026-05-05 13:40 |
|---|---|
| Airport | Shanghai Pudong International Airport (ZSPD) |
Arrival
| Time | N/A |
|---|---|
| Airport | Kansai International Airport (RJBB) |
| Time | Latitude | Longitude | Altitude | Speed | Heading |
|---|---|---|---|---|---|
| 2026-05-05 12:58 | 31.15852 | 121.80748 | 26 ft | 0 kts | 72° |
| 2026-05-05 13:30 | 31.15850 | 121.80741 | 26 ft | 2 kts | 72° |
| 2026-05-05 13:30 | 31.15845 | 121.80724 | 30 ft | 2 kts | 72° |
| 2026-05-05 13:31 | 31.15838 | 121.80699 | 27 ft | 8 kts | 72° |
| 2026-05-05 13:31 | 31.15837 | 121.80657 | 30 ft | 4 kts | 161° |
| 2026-05-05 13:31 | 31.15839 | 121.80656 | 31 ft | 0 kts | 161° |
| 2026-05-05 13:34 | 31.15829 | 121.80660 | 29 ft | 3 kts | 162° |
| 2026-05-05 13:34 | 31.15802 | 121.80670 | 26 ft | 5 kts | 163° |
| 2026-05-05 13:34 | 31.15761 | 121.80683 | 26 ft | 7 kts | 164° |
| 2026-05-05 13:34 | 31.15709 | 121.80702 | 30 ft | 9 kts | 163° |
| 2026-05-05 13:35 | 31.15672 | 121.80748 | 28 ft | 8 kts | 93° |
| 2026-05-05 13:35 | 31.15687 | 121.80815 | 27 ft | 9 kts | 72° |
| 2026-05-05 13:35 | 31.15709 | 121.80895 | 28 ft | 11 kts | 71° |
| 2026-05-05 13:35 | 31.15719 | 121.80932 | 26 ft | 0 kts | 72° |
| 2026-05-05 13:37 | 31.15738 | 121.80998 | 29 ft | 14 kts | 72° |
| 2026-05-05 13:38 | 31.15768 | 121.81105 | 25 ft | 3 kts | 72° |
| 2026-05-05 13:38 | 31.15768 | 121.81106 | 25 ft | 0 kts | 72° |
| 2026-05-05 13:38 | 31.15768 | 121.81107 | 25 ft | 0 kts | 72° |
| 2026-05-05 13:38 | 31.15769 | 121.81112 | 25 ft | 2 kts | 73° |
| 2026-05-05 13:39 | 31.15778 | 121.81144 | 26 ft | 8 kts | 72° |
| 2026-05-05 13:39 | 31.15781 | 121.81215 | 26 ft | 9 kts | 120° |
| 2026-05-05 13:39 | 31.15760 | 121.81231 | 26 ft | 0 kts | 159° |
| 2026-05-05 13:40 | 31.15754 | 121.81234 | 28 ft | 10 kts | 161° |
| 2026-05-05 13:40 | 31.15423 | 121.81358 | 28 ft | 89 kts | 162° |
| 2026-05-05 13:40 | 31.14584 | 121.81667 | 58 ft | 160 kts | 163° |
| 2026-05-05 13:40 | 31.13555 | 121.82177 | 784 ft | 160 kts | 139° |
| 2026-05-05 13:41 | 31.12878 | 121.83200 | 1778 ft | 156 kts | 140° |
| 2026-05-05 13:41 | 31.11906 | 121.83766 | 2555 ft | 169 kts | 165° |
| 2026-05-05 13:41 | 31.10705 | 121.84284 | 2897 ft | 204 kts | 158° |
| 2026-05-05 13:41 | 31.09283 | 121.85052 | 2951 ft | 241 kts | 153° |
| 2026-05-05 13:42 | 31.07778 | 121.86015 | 2987 ft | 250 kts | 151° |
| 2026-05-05 13:42 | 31.06273 | 121.87054 | 3003 ft | 252 kts | 150° |
| 2026-05-05 13:42 | 31.04781 | 121.88114 | 3037 ft | 250 kts | 150° |
| 2026-05-05 13:42 | 31.03298 | 121.89184 | 3042 ft | 250 kts | 150° |
| 2026-05-05 13:43 | 31.01826 | 121.90256 | 3039 ft | 249 kts | 148° |
| 2026-05-05 13:43 | 31.00450 | 121.91504 | 3040 ft | 252 kts | 141° |
| 2026-05-05 13:43 | 30.99127 | 121.92884 | 3196 ft | 260 kts | 140° |
| 2026-05-05 13:43 | 30.97756 | 121.94343 | 3930 ft | 271 kts | 139° |
| 2026-05-05 13:44 | 30.96393 | 121.95796 | 4585 ft | 262 kts | 139° |
| 2026-05-05 13:44 | 30.95057 | 121.97232 | 4922 ft | 264 kts | 136° |
| 2026-05-05 13:44 | 30.93966 | 121.98920 | 5188 ft | 269 kts | 116° |
| 2026-05-05 13:44 | 30.93568 | 122.01101 | 6055 ft | 278 kts | 88° |
| 2026-05-05 13:45 | 30.93932 | 122.03305 | 7292 ft | 279 kts | 74° |
| 2026-05-05 13:45 | 30.94518 | 122.05475 | 8519 ft | 282 kts | 72° |
| 2026-05-05 13:45 | 30.95146 | 122.07657 | 9732 ft | 287 kts | 72° |
| 2026-05-05 13:45 | 30.95789 | 122.09900 | 10668 ft | 301 kts | 72° |
| 2026-05-05 13:46 | 30.96477 | 122.12332 | 11093 ft | 332 kts | 72° |
| 2026-05-05 13:46 | 30.97224 | 122.14995 | 11482 ft | 361 kts | 72° |
| 2026-05-05 13:46 | 30.98030 | 122.17887 | 11847 ft | 386 kts | 72° |
| 2026-05-05 13:46 | 30.98874 | 122.20925 | 12317 ft | 402 kts | 72° |
| 2026-05-05 13:47 | 30.99679 | 122.24058 | 12961 ft | 409 kts | 77° |
| 2026-05-05 13:47 | 31.00011 | 122.27355 | 13672 ft | 415 kts | 87° |
| 2026-05-05 13:47 | 31.00057 | 122.30755 | 14198 ft | 424 kts | 90° |
| 2026-05-05 13:47 | 31.00044 | 122.34196 | 14879 ft | 425 kts | 90° |
| 2026-05-05 13:48 | 31.00027 | 122.37657 | 15578 ft | 429 kts | 90° |
| 2026-05-05 13:48 | 31.00015 | 122.41152 | 16218 ft | 433 kts | 90° |
| 2026-05-05 13:48 | 31.00012 | 122.44671 | 16889 ft | 436 kts | 89° |
| 2026-05-05 13:48 | 31.00015 | 122.48232 | 17470 ft | 441 kts | 89° |
| 2026-05-05 13:49 | 31.00020 | 122.51816 | 18106 ft | 445 kts | 89° |
| 2026-05-05 13:49 | 31.00024 | 122.55436 | 18673 ft | 449 kts | 89° |
| 2026-05-05 13:49 | 31.00028 | 122.59090 | 19192 ft | 453 kts | 89° |
| 2026-05-05 13:49 | 31.00031 | 122.62779 | 19765 ft | 457 kts | 89° |
| 2026-05-05 13:50 | 31.00032 | 122.65238 | 20103 ft | 460 kts | 89° |